Time;durP1;ratioP1;P1;durP2;ratioP2;P2;SDS_P1;SDS_P2;PMS_P1;PMS_P2;Temp;Humidity;BMP_temperature;BMP_pressure;BME280_temperature;BME280_humidity;BME280_pressure;Samples;Min_cycle;Max_cycle;Signal;HPM_P1;HPM_P2
2021/03/23 00:01:52;;;;;;;106.25;98.55;;;18.50;99.90;;;;;;5094505;28;20016;-63
2021/03/23 00:04:19;;;;;;;107.68;100.13;;;18.50;99.90;;;;;;5094554;28;20024;-64
2021/03/23 00:06:47;;;;;;;103.93;96.38;;;18.50;99.90;;;;;;5094468;28;20024;-64
2021/03/23 00:09:16;;;;;;;104.60;96.78;;;18.50;99.90;;;;;;5094463;28;20032;-64
2021/03/23 00:11:44;;;;;;;104.68;96.70;;;18.50;99.90;;;;;;5092977;28;20107;-64
2021/03/23 00:14:14;;;;;;;104.95;97.15;;;18.50;99.90;;;;;;5094179;28;20027;-64
2021/03/23 00:16:45;;;;;;;105.95;98.18;;;18.50;99.90;;;;;;5094312;28;20099;-65
2021/03/23 00:19:14;;;;;;;105.93;97.13;;;18.50;99.90;;;;;;5094060;28;20115;-64
2021/03/23 00:21:42;;;;;;;106.45;98.65;;;18.60;99.90;;;;;;5092821;28;20396;-65
2021/03/23 00:24:10;;;;;;;104.95;97.07;;;18.60;99.90;;;;;;5094161;28;20077;-63
2021/03/23 00:26:38;;;;;;;105.35;97.05;;;18.50;99.90;;;;;;5094240;28;20480;-64
2021/03/23 00:29:06;;;;;;;102.40;95.00;;;18.60;99.90;;;;;;5093880;28;20468;-64
2021/03/23 00:31:34;;;;;;;103.72;96.00;;;18.60;99.90;;;;;;5093976;28;20024;-64
2021/03/23 00:34:04;;;;;;;109.00;100.93;;;18.60;99.90;;;;;;5092698;28;20376;-68
2021/03/23 00:36:39;;;;;;;105.78;98.15;;;18.60;99.90;;;;;;5093845;28;20523;-64
2021/03/23 00:39:08;;;;;;;105.63;98.05;;;18.60;99.90;;;;;;5092537;28;20450;-65
2021/03/23 00:41:39;;;;;;;106.20;98.30;;;18.60;99.90;;;;;;5093921;28;20055;-64
2021/03/23 00:44:09;;;;;;;103.47;95.70;;;18.60;99.90;;;;;;5094375;28;20028;-64
2021/03/23 00:46:36;;;;;;;100.05;92.53;;;18.60;99.90;;;;;;5094145;28;20073;-64
2021/03/23 00:49:03;;;;;;;104.00;96.13;;;18.60;99.90;;;;;;5093784;28;20412;-64
2021/03/23 00:51:31;;;;;;;104.82;97.00;;;18.60;99.90;;;;;;5093649;28;20016;-63
2021/03/23 00:53:58;;;;;;;105.15;97.30;;;18.60;99.90;;;;;;5093666;28;20024;-64
2021/03/23 00:56:25;;;;;;;106.35;98.50;;;18.50;99.90;;;;;;5093576;28;20103;-64
2021/03/23 00:58:53;;;;;;;111.57;103.57;;;18.60;99.90;;;;;;5093538;28;20575;-64
2021/03/23 01:01:20;;;;;;;113.55;105.25;;;18.60;99.90;;;;;;5093569;28;20015;-64
2021/03/23 01:03:47;;;;;;;106.10;98.13;;;18.60;99.90;;;;;;5093508;28;20024;-64
2021/03/23 01:06:15;;;;;;;105.43;97.68;;;18.50;99.90;;;;;;5093754;28;20099;-64
2021/03/23 01:09:00;;;;;;;99.47;91.85;;;18.60;99.90;;;;;;5093969;28;20056;-65
2021/03/23 01:11:27;;;;;;;101.43;93.93;;;18.60;99.90;;;;;;5093388;28;20541;-64
2021/03/23 01:13:55;;;;;;;97.50;90.40;;;18.60;99.90;;;;;;5093341;28;20065;-64
2021/03/23 01:16:22;;;;;;;96.97;89.32;;;18.60;99.90;;;;;;5093364;28;20487;-64
2021/03/23 01:18:49;;;;;;;96.28;89.18;;;18.60;99.90;;;;;;5093251;28;20050;-64
2021/03/23 01:21:17;;;;;;;96.85;89.45;;;18.60;99.90;;;;;;5093238;28;20020;-64
2021/03/23 01:23:44;;;;;;;92.93;85.65;;;18.60;99.90;;;;;;5093218;28;20032;-64
2021/03/23 01:26:12;;;;;;;99.63;92.28;;;18.60;99.90;;;;;;5093157;28;20020;-64
2021/03/23 01:28:39;;;;;;;96.00;88.82;;;18.60;99.90;;;;;;5093109;28;20101;-64
2021/03/23 01:31:07;;;;;;;96.82;89.30;;;18.60;99.90;;;;;;5093132;28;20032;-64
2021/03/23 01:33:34;;;;;;;96.10;88.72;;;18.60;99.90;;;;;;5093137;28;20476;-65
2021/03/23 01:36:01;;;;;;;97.05;90.18;;;18.60;99.90;;;;;;5093093;28;20073;-64
2021/03/23 01:38:29;;;;;;;96.68;90.03;;;18.70;99.90;;;;;;5093904;28;20129;-65
2021/03/23 01:40:56;;;;;;;94.65;87.72;;;18.60;99.90;;;;;;5093366;28;20407;-64
2021/03/23 01:43:31;;;;;;;95.72;89.30;;;18.60;99.90;;;;;;5092960;28;20025;-64
2021/03/23 01:46:00;;;;;;;93.85;87.60;;;18.60;99.90;;;;;;5093275;28;20017;-64
2021/03/23 01:48:30;;;;;;;94.03;87.45;;;18.70;99.90;;;;;;5093578;28;20024;-64
2021/03/23 01:51:07;;;;;;;88.30;82.15;;;18.70;99.90;;;;;;5093066;28;20059;-64
2021/03/23 01:53:38;;;;;;;95.53;88.82;;;18.80;99.90;;;;;;5093013;28;20032;-64
2021/03/23 01:56:10;;;;;;;96.78;90.05;;;18.80;99.90;;;;;;5093596;28;20028;-64
2021/03/23 01:58:42;;;;;;;94.95;88.55;;;18.80;99.90;;;;;;5096291;28;20039;-64
2021/03/23 02:01:13;;;;;;;98.03;91.53;;;18.80;99.90;;;;;;5096885;28;20024;-64
2021/03/23 02:03:41;;;;;;;102.60;95.75;;;18.80;99.90;;;;;;5097581;28;20462;-64
2021/03/23 02:06:28;;;;;;;98.68;92.25;;;18.80;99.90;;;;;;5096875;28;20027;-64
2021/03/23 02:09:00;;;;;;;98.60;91.75;;;18.90;99.90;;;;;;5097351;28;20035;-64
2021/03/23 02:11:30;;;;;;;95.97;89.82;;;18.90;99.90;;;;;;5096673;28;20039;-64
2021/03/23 02:13:58;;;;;;;97.57;91.57;;;18.90;99.90;;;;;;5095539;28;20027;-64
2021/03/23 02:16:26;;;;;;;98.72;92.13;;;18.90;99.90;;;;;;5096610;28;20032;-64
2021/03/23 02:18:53;;;;;;;99.70;93.30;;;18.90;99.90;;;;;;5096847;28;20020;-63
2021/03/23 02:21:22;;;;;;;100.85;94.45;;;18.90;99.90;;;;;;5095130;28;20042;-64
2021/03/23 02:23:54;;;;;;;98.97;92.38;;;18.90;99.90;;;;;;5096550;28;20016;-63
2021/03/23 02:26:25;;;;;;;101.15;94.80;;;18.90;99.90;;;;;;5096398;28;20012;-64
2021/03/23 02:29:05;;;;;;;100.22;93.72;;;18.80;99.90;;;;;;5096299;28;20472;-64
2021/03/23 02:31:37;;;;;;;98.78;92.18;;;18.80;99.90;;;;;;5096302;28;20059;-64
2021/03/23 02:34:10;;;;;;;103.00;96.15;;;18.80;99.90;;;;;;5096633;28;20078;-64
2021/03/23 02:36:47;;;;;;;110.03;102.60;;;18.80;99.90;;;;;;5094894;28;20387;-64
2021/03/23 02:39:18;;;;;;;104.80;97.97;;;18.80;99.90;;;;;;5096184;28;20036;-64
2021/03/23 02:41:45;;;;;;;106.25;99.35;;;18.80;99.90;;;;;;5096243;28;20032;-64
2021/03/23 02:44:13;;;;;;;103.25;96.80;;;18.70;99.90;;;;;;5096081;28;20012;-64
2021/03/23 02:46:40;;;;;;;103.68;97.10;;;18.80;99.90;;;;;;5096037;28;20073;-64
2021/03/23 02:49:09;;;;;;;100.18;93.60;;;18.80;99.90;;;;;;5096238;28;20050;-64
2021/03/23 02:51:37;;;;;;;100.15;93.75;;;18.80;99.90;;;;;;5094591;28;20047;-64
2021/03/23 02:54:05;;;;;;;104.20;97.53;;;18.90;99.90;;;;;;5094752;28;20020;-63
2021/03/23 02:56:33;;;;;;;98.97;92.63;;;18.80;99.90;;;;;;5095907;28;20020;-63
2021/03/23 02:59:00;;;;;;;97.05;90.78;;;18.80;99.90;;;;;;5095771;28;20499;-65
2021/03/23 03:01:28;;;;;;;99.32;93.00;;;18.80;99.90;;;;;;5095840;28;20468;-64
2021/03/23 03:03:55;;;;;;;100.95;94.20;;;18.80;99.90;;;;;;5095141;28;20378;-64
2021/03/23 03:06:22;;;;;;;103.05;96.53;;;18.80;99.90;;;;;;5095664;28;20480;-64
2021/03/23 03:08:50;;;;;;;100.32;93.53;;;18.80;99.90;;;;;;5095294;28;20028;-65
2021/03/23 03:11:17;;;;;;;100.18;93.50;;;18.80;99.90;;;;;;5095666;28;20028;-64
2021/03/23 03:13:44;;;;;;;101.93;95.05;;;18.80;99.90;;;;;;5095794;28;20349;-64
2021/03/23 03:16:12;;;;;;;97.75;91.20;;;18.90;99.90;;;;;;5095547;28;20472;-65
2021/03/23 03:18:39;;;;;;;102.00;95.50;;;18.90;99.90;;;;;;5095395;28;20034;-65
2021/03/23 03:21:06;;;;;;;99.65;93.25;;;18.80;99.90;;;;;;5095437;28;20056;-64
2021/03/23 03:23:34;;;;;;;103.07;96.47;;;18.90;99.90;;;;;;5095191;28;20038;-64
2021/03/23 03:26:02;;;;;;;97.55;91.25;;;18.90;99.90;;;;;;5095310;28;20082;-64
2021/03/23 03:28:29;;;;;;;98.00;91.55;;;18.90;99.90;;;;;;5095277;28;20020;-64
2021/03/23 03:30:57;;;;;;;101.30;94.40;;;19.00;99.90;;;;;;5095111;28;20020;-64
2021/03/23 03:33:25;;;;;;;102.93;96.53;;;19.00;99.90;;;;;;5095382;28;20052;-64
2021/03/23 03:35:53;;;;;;;101.47;94.97;;;19.00;99.90;;;;;;5095218;28;20039;-63
2021/03/23 03:38:25;;;;;;;100.95;94.75;;;19.00;99.90;;;;;;5094997;28;20038;-64
2021/03/23 03:40:56;;;;;;;101.88;95.68;;;19.00;99.90;;;;;;5094960;28;20048;-64
2021/03/23 03:43:27;;;;;;;101.65;95.45;;;19.00;99.90;;;;;;5095317;28;20016;-64
2021/03/23 03:45:54;;;;;;;;;;;19.10;99.90;;;;;;5095280;28;20028;-65
2021/03/23 03:48:21;;;;;;;99.53;93.32;;;19.00;99.90;;;;;;5094730;28;19988;-64
2021/03/23 03:50:49;;;;;;;105.35;98.85;;;19.10;99.90;;;;;;5094785;28;20046;-65
2021/03/23 03:53:17;;;;;;;100.65;94.55;;;19.10;99.90;;;;;;5094935;28;20089;-65
2021/03/23 03:55:45;;;;;;;100.60;94.18;;;19.10;99.90;;;;;;5094578;28;20031;-64
2021/03/23 03:58:13;;;;;;;104.25;97.65;;;19.20;99.90;;;;;;5094016;28;20366;-64
2021/03/23 04:00:42;;;;;;;110.50;104.20;;;19.20;99.90;;;;;;5094860;28;20016;-64
2021/03/23 04:03:17;;;;;;;120.55;113.55;;;19.30;99.90;;;;;;5094509;28;20499;-64
2021/03/23 04:05:47;;;;;;;119.25;112.32;;;19.30;99.90;;;;;;5094316;28;20496;-63
2021/03/23 04:08:18;;;;;;;110.32;103.72;;;19.40;99.90;;;;;;5094682;28;20038;-64
2021/03/23 04:10:46;;;;;;;109.32;102.60;;;19.50;99.90;;;;;;5094321;28;20024;-64
2021/03/23 04:13:14;;;;;;;106.60;100.15;;;19.60;99.90;;;;;;5094377;28;20078;-64
2021/03/23 04:15:44;;;;;;;105.22;98.72;;;19.60;99.90;;;;;;5094831;28;20017;-65
2021/03/23 04:18:13;;;;;;;103.83;97.33;;;19.70;99.90;;;;;;5094124;28;20024;-64
2021/03/23 04:20:41;;;;;;;102.38;95.95;;;19.80;99.90;;;;;;5092160;28;20024;-64
2021/03/23 04:23:17;;;;;;;104.20;97.95;;;19.90;99.90;;;;;;5094982;28;20042;-64
2021/03/23 04:25:44;;;;;;;101.05;94.85;;;20.00;99.90;;;;;;5094282;28;20128;-64
2021/03/23 04:28:12;;;;;;;98.53;92.25;;;20.00;99.90;;;;;;5092711;28;20440;-64
2021/03/23 04:30:39;;;;;;;102.20;95.80;;;20.00;99.90;;;;;;5092568;28;20422;-64
2021/03/23 04:33:06;;;;;;;109.53;102.97;;;20.00;99.90;;;;;;5093974;28;20024;-64
2021/03/23 04:35:49;;;;;;;110.20;103.22;;;20.00;99.90;;;;;;5093843;28;20393;-64
2021/03/23 04:38:21;;;;;;;102.75;95.93;;;20.10;99.90;;;;;;5093801;28;20016;-65
2021/03/23 04:40:49;;;;;;;102.72;95.75;;;20.10;99.90;;;;;;5093598;28;20074;-64
2021/03/23 04:43:23;;;;;;;105.13;98.03;;;20.00;99.90;;;;;;5093789;28;20027;-64
2021/03/23 04:45:51;;;;;;;110.15;102.97;;;20.00;99.90;;;;;;5093783;28;20020;-65
2021/03/23 04:48:18;;;;;;;107.10;100.20;;;20.00;99.90;;;;;;5093717;28;20408;-64
2021/03/23 04:50:46;;;;;;;105.85;98.70;;;20.00;99.90;;;;;;5093548;28;20051;-64
2021/03/23 04:53:29;;;;;;;114.07;106.63;;;20.10;99.90;;;;;;5093605;28;20020;-64
2021/03/23 04:55:57;;;;;;;103.97;96.38;;;20.10;99.90;;;;;;5094220;28;20017;-65
2021/03/23 04:58:25;;;;;;;104.57;97.60;;;20.30;99.90;;;;;;5093463;28;20032;-64
2021/03/23 05:00:54;;;;;;;102.35;95.30;;;20.30;99.90;;;;;;5093553;28;20035;-65
2021/03/23 05:03:25;;;;;;;101.10;94.35;;;20.20;99.90;;;;;;5093428;28;20361;-64
2021/03/23 05:05:57;;;;;;;101.05;94.13;;;20.10;99.90;;;;;;5092164;28;20024;-65
2021/03/23 05:08:25;;;;;;;98.32;91.35;;;20.10;99.90;;;;;;5093461;28;20421;-68
2021/03/23 05:10:54;;;;;;;102.65;95.35;;;20.10;99.90;;;;;;5093463;28;20476;-65
2021/03/23 05:13:21;;;;;;;104.68;97.38;;;20.00;99.90;;;;;;5093331;28;20058;-65
2021/03/23 05:15:48;;;;;;;100.78;93.68;;;20.00;99.90;;;;;;5093255;28;20030;-65
2021/03/23 05:18:16;;;;;;;104.95;97.47;;;20.00;99.90;;;;;;5093307;28;20020;-65
2021/03/23 05:20:44;;;;;;;105.13;97.50;;;20.10;99.90;;;;;;5093320;28;20497;-65
2021/03/23 05:23:13;;;;;;;100.53;93.43;;;20.10;99.90;;;;;;5093724;28;20020;-65
2021/03/23 05:25:41;;;;;;;98.93;92.07;;;20.10;99.90;;;;;;5093213;28;20035;-64
2021/03/23 05:28:10;;;;;;;102.80;95.25;;;20.20;99.90;;;;;;5093219;28;20130;-65
2021/03/23 05:30:39;;;;;;;101.38;94.05;;;20.20;99.90;;;;;;5092869;28;20024;-65
2021/03/23 05:33:10;;;;;;;107.10;99.88;;;20.20;99.90;;;;;;5097175;28;20032;-65
2021/03/23 05:35:39;;;;;;;110.13;102.93;;;20.30;99.90;;;;;;5097823;28;20024;-65
2021/03/23 05:38:06;;;;;;;107.22;99.82;;;20.20;99.90;;;;;;5097115;28;20047;-64
2021/03/23 05:40:49;;;;;;;108.50;101.68;;;20.20;99.90;;;;;;5095696;28;20101;-65
2021/03/23 05:43:37;;;;;;;110.47;103.22;;;20.30;99.90;;;;;;5097244;28;20076;-65
2021/03/23 05:46:38;;;;;;;104.40;97.53;;;20.20;99.90;;;;;;5097071;28;20476;-64
2021/03/23 05:49:36;;;;;;;105.80;98.50;;;20.20;99.90;;;;;;5090737;28;20032;-64
2021/03/23 05:52:27;;;;;;;104.55;96.95;;;20.30;99.90;;;;;;5097286;28;20024;-64
2021/03/23 05:55:16;;;;;;;112.50;104.75;;;20.30;99.90;;;;;;5097535;28;20028;-66
2021/03/23 05:57:50;;;;;;;107.32;99.78;;;20.20;99.90;;;;;;5096937;28;20095;-65
2021/03/23 06:00:24;;;;;;;110.50;103.07;;;20.30;99.90;;;;;;5097351;28;20479;-65
2021/03/23 06:02:59;;;;;;;115.03;107.32;;;20.40;99.90;;;;;;5096847;28;20049;-64
2021/03/23 06:05:45;;;;;;;114.10;106.72;;;20.30;99.90;;;;;;5097068;28;20113;-65
2021/03/23 06:08:27;;;;;;;111.03;103.57;;;20.40;99.90;;;;;;5096781;28;20024;-65
2021/03/23 06:11:25;;;;;;;110.70;102.63;;;20.30;99.90;;;;;;5095761;28;20057;-65
2021/03/23 06:13:56;;;;;;;113.88;106.10;;;20.40;99.90;;;;;;5097187;28;20020;-65
2021/03/23 06:17:13;;;;;;;113.13;104.75;;;20.30;99.90;;;;;;5096713;28;20051;-65
2021/03/23 06:20:16;;;;;;;113.80;106.00;;;20.40;99.90;;;;;;5062439;28;20085;-65
2021/03/23 06:23:07;;;;;;;112.97;104.63;;;20.30;99.90;;;;;;5064117;28;20407;-65
2021/03/23 06:25:48;;;;;;;107.30;99.55;;;20.30;99.90;;;;;;5096525;28;20045;-65
2021/03/23 06:28:53;;;;;;;100.22;92.93;;;20.30;99.90;;;;;;5096713;28;20028;-65
2021/03/23 06:31:39;;;;;;;102.13;94.07;;;20.30;99.90;;;;;;5096552;28;20390;-68
2021/03/23 06:34:15;;;;;;;103.38;96.03;;;20.40;99.90;;;;;;5096693;28;20032;-66
2021/03/23 06:36:42;;;;;;;102.63;95.10;;;20.40;99.90;;;;;;5096519;28;20493;-66
2021/03/23 06:39:13;;;;;;;102.50;95.20;;;20.40;99.90;;;;;;5095942;28;20043;-67
2021/03/23 06:41:54;;;;;;;101.60;94.20;;;20.40;99.90;;;;;;5096347;28;20024;-67
2021/03/23 06:44:30;;;;;;;106.68;99.65;;;20.40;99.90;;;;;;5095815;28;20024;-67
2021/03/23 06:46:58;;;;;;;107.43;100.13;;;20.40;99.90;;;;;;5096436;28;20039;-67
2021/03/23 06:49:32;;;;;;;100.30;93.63;;;20.40;99.90;;;;;;5096087;28;20024;-63
2021/03/23 06:52:03;;;;;;;102.75;95.35;;;20.40;99.90;;;;;;5094721;28;20054;-63
2021/03/23 06:54:35;;;;;;;101.63;94.03;;;20.50;99.90;;;;;;5096345;28;20069;-64
2021/03/23 06:57:11;;;;;;;102.45;94.97;;;20.50;99.90;;;;;;5096013;28;20026;-66
2021/03/23 06:59:53;;;;;;;105.13;97.00;;;20.50;99.90;;;;;;5094513;28;20030;-66
2021/03/23 07:02:36;;;;;;;100.55;93.35;;;20.50;99.90;;;;;;5096362;28;20016;-64
2021/03/23 07:05:30;;;;;;;103.82;96.57;;;20.50;99.90;;;;;;5096047;28;20020;-64
2021/03/23 07:08:15;;;;;;;107.47;99.90;;;20.40;99.90;;;;;;5095612;28;20061;-64
2021/03/23 07:11:02;;;;;;;103.57;96.07;;;20.40;99.90;;;;;;5096187;28;20069;-64
2021/03/23 07:13:31;;;;;;;105.95;97.43;;;20.50;99.90;;;;;;5096079;28;20049;-65
2021/03/23 07:15:58;;;;;;;101.05;93.55;;;20.40;99.90;;;;;;5096185;28;20484;-65
2021/03/23 07:18:28;;;;;;;97.55;89.70;;;20.40;99.90;;;;;;5095822;28;20012;-66
2021/03/23 07:21:02;;;;;;;98.82;91.30;;;20.40;99.90;;;;;;5095227;28;20024;-66
2021/03/23 07:23:32;;;;;;;104.75;96.07;;;20.40;99.90;;;;;;5095496;28;20095;-65
2021/03/23 07:26:28;;;;;;;102.18;93.82;;;20.30;99.90;;;;;;5095259;28;20024;-66
2021/03/23 07:29:24;;;;;;;104.93;96.80;;;20.20;99.90;;;;;;5095582;28;20100;-66
2021/03/23 07:32:04;;;;;;;103.50;95.60;;;20.20;99.90;;;;;;5086505;28;20035;-66
2021/03/23 07:34:58;;;;;;;104.70;96.10;;;20.20;99.90;;;;;;5095099;28;20032;-66
2021/03/23 07:37:37;;;;;;;108.75;99.88;;;20.10;99.90;;;;;;5095544;28;20020;-66
2021/03/23 07:40:26;;;;;;;101.78;93.38;;;20.10;99.90;;;;;;5094864;28;20048;-66
2021/03/23 07:43:07;;;;;;;102.85;94.32;;;20.10;99.90;;;;;;5095198;28;20030;-65
2021/03/23 07:46:06;;;;;;;104.00;95.38;;;20.00;99.90;;;;;;5095580;28;20410;-66
2021/03/23 07:48:48;;;;;;;108.43;99.13;;;20.00;99.90;;;;;;5094896;28;20028;-66
2021/03/23 07:51:47;;;;;;;106.60;98.05;;;19.90;99.90;;;;;;5094888;28;20058;-65
2021/03/23 07:54:35;;;;;;;104.00;95.30;;;19.90;99.90;;;;;;5094951;28;20024;-66
2021/03/23 07:57:31;;;;;;;103.43;94.32;;;19.80;99.90;;;;;;5094457;28;20031;-66
2021/03/23 07:59:59;;;;;;;106.75;98.25;;;19.80;99.90;;;;;;5094775;28;20051;-70
2021/03/23 08:02:38;;;;;;;105.47;97.20;;;19.70;99.90;;;;;;5095137;28;20081;-69
2021/03/23 08:06:02;;;;;;;105.13;96.85;;;19.70;99.90;;;;;;5094473;28;20136;-70
2021/03/23 08:09:05;;;;;;;61.20;54.75;;;19.60;99.90;;;;;;5012390;28;20425;-71
2021/03/23 08:11:46;;;;;;;63.38;56.92;;;19.60;99.90;;;;;;5012684;28;20415;-69
2021/03/23 08:14:32;;;;;;;66.63;59.38;;;19.60;99.90;;;;;;5080451;28;20032;-69
2021/03/23 08:17:20;;;;;;;62.38;55.85;;;19.60;99.90;;;;;;5094809;28;20040;-69
2021/03/23 08:20:13;;;;;;;63.20;56.88;;;19.60;99.90;;;;;;5094555;28;20071;-69
2021/03/23 08:22:55;;;;;;;59.83;51.50;;;19.60;99.90;;;;;;5095344;28;20044;-69
2021/03/23 08:25:48;;;;;;;58.80;52.42;;;19.50;99.90;;;;;;5093942;28;20032;-69
2021/03/23 08:28:37;;;;;;;60.42;51.30;;;19.50;99.90;;;;;;5095104;28;20016;-68
2021/03/23 08:31:25;;;;;;;63.78;53.88;;;19.50;99.90;;;;;;5094186;28;20027;-67
2021/03/23 08:34:21;;;;;;;101.10;92.88;;;19.60;99.90;;;;;;5093054;28;20045;-68
2021/03/23 08:37:25;;;;;;;103.13;94.50;;;19.60;99.90;;;;;;5094200;28;20425;-68
2021/03/23 08:39:58;;;;;;;110.40;102.20;;;19.60;99.90;;;;;;5092369;28;20036;-66
2021/03/23 08:42:27;;;;;;;100.68;92.82;;;19.60;99.90;;;;;;5094582;28;20028;-67
2021/03/23 08:44:56;;;;;;;105.15;96.93;;;19.50;99.90;;;;;;5094345;28;20077;-68
2021/03/23 08:47:28;;;;;;;102.97;94.75;;;19.50;99.90;;;;;;5093978;28;20038;-68
2021/03/23 08:50:01;;;;;;;104.22;96.10;;;19.50;99.90;;;;;;5093731;28;20052;-68
2021/03/23 08:52:31;;;;;;;109.32;100.93;;;19.50;99.90;;;;;;5092442;28;20024;-67
2021/03/23 08:54:59;;;;;;;100.90;93.35;;;19.50;99.90;;;;;;5093733;28;20030;-62
2021/03/23 08:57:49;;;;;;;99.88;92.07;;;19.50;99.90;;;;;;5093544;28;20111;-62
2021/03/23 09:00:39;;;;;;;100.30;92.65;;;19.50;99.90;;;;;;5093633;28;20052;-61
2021/03/23 09:03:10;;;;;;;102.07;94.22;;;19.50;99.90;;;;;;5094247;28;20077;-62
2021/03/23 09:05:56;;;;;;;;;;;19.50;99.90;;;;;;5093810;28;20107;-62
2021/03/23 09:08:43;;;;;;;104.20;96.32;;;19.50;99.90;;;;;;5093519;28;19908;-61
2021/03/23 09:11:13;;;;;;;105.55;97.70;;;19.50;99.90;;;;;;5093615;28;20024;-61
2021/03/23 09:13:41;;;;;;;105.35;97.72;;;19.50;99.90;;;;;;5093526;28;20024;-61
2021/03/23 09:16:14;;;;;;;106.82;98.82;;;19.50;99.90;;;;;;5094101;28;20028;-60
2021/03/23 09:19:08;;;;;;;105.43;97.35;;;19.50;99.90;;;;;;5093309;28;20035;-62
2021/03/23 09:21:57;;;;;;;108.18;100.45;;;19.60;99.90;;;;;;5085294;28;20024;-61
2021/03/23 09:24:39;;;;;;;112.93;104.68;;;19.60;99.90;;;;;;5093209;28;20026;-64
2021/03/23 09:27:14;;;;;;;112.68;104.57;;;19.60;99.90;;;;;;5093561;28;20016;-69
2021/03/23 09:29:46;;;;;;;111.93;104.10;;;19.60;99.90;;;;;;5093047;28;20032;-64
2021/03/23 09:32:22;;;;;;;111.20;103.72;;;19.60;99.90;;;;;;5093050;28;20066;-64
2021/03/23 09:35:17;;;;;;;110.45;102.45;;;19.60;99.90;;;;;;5093825;28;20028;-64
2021/03/23 09:37:49;;;;;;;105.97;98.15;;;19.60;99.90;;;;;;5093476;28;20529;-64
2021/03/23 09:40:20;;;;;;;109.35;101.85;;;19.60;99.90;;;;;;5091583;28;20433;-65
2021/03/23 09:43:20;;;;;;;108.70;101.00;;;19.60;99.90;;;;;;5093057;28;20020;-64
2021/03/23 09:45:50;;;;;;;113.57;105.53;;;19.60;99.90;;;;;;5086840;28;20031;-64
2021/03/23 09:48:18;;;;;;;105.90;98.68;;;19.70;99.90;;;;;;5093164;28;20016;-64
2021/03/23 09:50:54;;;;;;;105.25;97.40;;;19.60;99.90;;;;;;5093096;28;20020;-64
2021/03/23 09:53:42;;;;;;;106.20;98.55;;;19.60;99.90;;;;;;5092994;28;20028;-64
2021/03/23 09:56:25;;;;;;;109.13;101.22;;;19.60;99.90;;;;;;5093571;28;20025;-63
2021/03/23 09:59:06;;;;;;;109.10;101.50;;;19.60;99.90;;;;;;5093041;28;20032;-63
2021/03/23 10:01:35;;;;;;;109.43;101.95;;;19.60;99.90;;;;;;5092961;28;20476;-64
2021/03/23 10:04:03;;;;;;;112.32;105.03;;;19.60;99.90;;;;;;5092866;28;20020;-63
2021/03/23 10:06:46;;;;;;;113.47;105.88;;;19.60;99.90;;;;;;5093573;28;20020;-64
2021/03/23 10:09:22;;;;;;;110.30;102.60;;;19.60;99.90;;;;;;5091600;28;20032;-64
2021/03/23 10:11:50;;;;;;;108.55;101.38;;;19.60;99.90;;;;;;5092966;28;20016;-64
2021/03/23 10:14:31;;;;;;;113.82;106.25;;;19.60;99.90;;;;;;5092753;28;20039;-64
2021/03/23 10:17:08;;;;;;;112.43;105.15;;;19.60;99.90;;;;;;5093348;28;20028;-64
2021/03/23 10:19:42;;;;;;;114.97;107.32;;;19.60;99.90;;;;;;5096283;28;20541;-64
2021/03/23 10:22:29;;;;;;;109.60;102.53;;;19.50;99.90;;;;;;5097188;28;20019;-64
2021/03/23 10:24:58;;;;;;;112.05;104.90;;;19.50;99.90;;;;;;5097159;28;20099;-64
2021/03/23 10:27:31;;;;;;;112.60;105.15;;;19.50;99.90;;;;;;5096496;28;20494;-64
2021/03/23 10:30:10;;;;;;;115.40;108.45;;;19.40;99.90;;;;;;5096458;28;20052;-64
2021/03/23 10:32:40;;;;;;;115.75;108.22;;;19.40;99.90;;;;;;5096446;28;20032;-64
2021/03/23 10:35:23;;;;;;;115.35;108.10;;;19.40;99.90;;;;;;5096293;28;20070;-64
2021/03/23 10:38:19;;;;;;;115.85;108.45;;;19.50;99.90;;;;;;5097029;28;20020;-64
2021/03/23 10:40:52;;;;;;;115.03;107.93;;;19.40;99.90;;;;;;5096022;28;20068;-64
2021/03/23 10:43:43;;;;;;;111.22;104.07;;;19.30;99.90;;;;;;5096133;28;20357;-64
2021/03/23 10:46:30;;;;;;;;;;;19.30;99.90;;;;;;5096689;28;20021;-63
2021/03/23 10:51:56;;;;;;;113.68;106.53;;;19.30;99.90;;;;;;5096030;28;20086;-62
2021/03/23 10:54:25;;;;;;;115.30;107.90;;;19.30;99.90;;;;;;5096630;28;20028;-62
2021/03/23 10:56:59;;;;;;;118.10;110.65;;;19.20;99.90;;;;;;5095417;28;20056;-63
2021/03/23 10:59:35;;;;;;;113.68;106.78;;;19.20;99.90;;;;;;5095765;28;20031;-63
2021/03/23 11:02:09;;;;;;;108.55;101.88;;;19.20;99.90;;;;;;5096859;28;20024;-63
2021/03/23 11:04:37;;;;;;;109.25;102.45;;;19.20;99.90;;;;;;5095257;28;20099;-63
2021/03/23 11:07:22;;;;;;;114.63;107.90;;;19.20;99.90;;;;;;5095796;28;20042;-64
2021/03/23 11:09:56;;;;;;;111.95;105.25;;;19.20;99.90;;;;;;5095845;28;20493;-63
2021/03/23 11:12:23;;;;;;;109.85;102.95;;;19.10;99.90;;;;;;5095586;28;20075;-63
2021/03/23 11:14:52;;;;;;;114.18;106.82;;;19.10;99.90;;;;;;5095481;28;20109;-63
2021/03/23 11:17:23;;;;;;;111.20;104.32;;;19.00;99.90;;;;;;5095547;28;20020;-63
2021/03/23 11:20:00;;;;;;;109.57;102.78;;;19.10;99.90;;;;;;5095601;28;20016;-63
2021/03/23 11:22:34;;;;;;;112.80;105.90;;;19.10;99.90;;;;;;5095466;28;20051;-63
2021/03/23 11:25:05;;;;;;;112.95;106.20;;;19.20;99.90;;;;;;5095302;28;20013;-63
2021/03/23 11:27:32;;;;;;;114.95;108.25;;;19.10;99.90;;;;;;5095431;28;20079;-63
2021/03/23 11:30:00;;;;;;;109.88;103.07;;;19.10;99.90;;;;;;5095009;28;20059;-63
2021/03/23 11:32:28;;;;;;;110.82;104.13;;;19.10;99.90;;;;;;5095330;28;20044;-63
2021/03/23 11:34:55;;;;;;;114.03;107.18;;;19.10;99.90;;;;;;5095296;28;20016;-63
2021/03/23 11:37:23;;;;;;;116.47;109.97;;;19.00;99.90;;;;;;5095062;28;20419;-63
2021/03/23 11:39:50;;;;;;;114.88;108.07;;;19.00;99.90;;;;;;5094797;28;20123;-63
2021/03/23 11:42:44;;;;;;;113.65;106.68;;;19.00;99.90;;;;;;5095181;28;20107;-63
2021/03/23 11:45:26;;;;;;;118.18;111.47;;;19.00;99.90;;;;;;5094604;28;20044;-63
2021/03/23 11:48:01;;;;;;;113.68;107.22;;;19.00;99.90;;;;;;5095376;28;20016;-63
2021/03/23 11:50:31;;;;;;;115.22;108.63;;;19.00;99.90;;;;;;5095503;28;20016;-63
2021/03/23 11:52:59;;;;;;;112.00;105.32;;;18.90;99.90;;;;;;5095046;28;20431;-63
2021/03/23 11:55:33;;;;;;;114.70;108.10;;;19.00;99.90;;;;;;5094692;28;20028;-63
2021/03/23 11:58:03;;;;;;;119.07;112.47;;;19.00;99.90;;;;;;5095042;28;20107;-63
2021/03/23 12:00:31;;;;;;;117.00;109.90;;;19.00;99.90;;;;;;5094564;28;20032;-63
2021/03/23 12:02:59;;;;;;;111.70;105.10;;;19.00;99.90;;;;;;5094563;28;20107;-63
2021/03/23 12:05:28;;;;;;;113.88;107.38;;;19.00;99.90;;;;;;5094495;28;20016;-63
2021/03/23 12:08:23;;;;;;;112.57;105.78;;;18.90;99.90;;;;;;5094479;28;20028;-63
2021/03/23 12:10:56;;;;;;;112.53;105.63;;;18.80;99.90;;;;;;5094844;28;20528;-63
2021/03/23 12:13:23;;;;;;;113.80;107.03;;;18.80;99.90;;;;;;5094511;28;20067;-63
2021/03/23 12:16:18;;;;;;;119.88;113.07;;;18.90;99.90;;;;;;5094231;28;20055;-63
2021/03/23 12:19:01;;;;;;;126.07;118.97;;;18.80;99.90;;;;;;5094612;28;20047;-63
2021/03/23 12:21:29;;;;;;;122.28;114.97;;;18.80;99.90;;;;;;5094203;28;20431;-64
2021/03/23 12:23:57;;;;;;;123.32;116.13;;;18.80;99.90;;;;;;5094116;28;20093;-64
2021/03/23 12:26:24;;;;;;;122.90;116.10;;;18.70;99.90;;;;;;5094242;28;20016;-64
2021/03/23 12:28:52;;;;;;;125.45;118.45;;;18.80;99.90;;;;;;5094126;28;20036;-64
2021/03/23 12:31:19;;;;;;;117.13;110.43;;;18.80;99.90;;;;;;5094617;28;20029;-64
2021/03/23 12:33:47;;;;;;;116.65;110.03;;;18.80;99.90;;;;;;5094103;28;20411;-64
2021/03/23 12:36:15;;;;;;;118.55;111.95;;;18.80;99.90;;;;;;5094094;28;20046;-64
2021/03/23 12:38:45;;;;;;;119.63;113.00;;;18.80;99.90;;;;;;5093597;28;20032;-63
2021/03/23 12:41:16;;;;;;;117.78;111.18;;;18.70;99.90;;;;;;5093403;28;20024;-64
2021/03/23 12:43:43;;;;;;;;;;;18.70;99.90;;;;;;5094239;28;20477;-63
2021/03/23 12:46:11;;;;;;;120.18;113.38;;;18.60;99.90;;;;;;5093885;28;20272;-63
2021/03/23 12:48:38;;;;;;;123.65;116.45;;;18.50;99.90;;;;;;5093964;28;20020;-63
2021/03/23 12:51:07;;;;;;;122.78;114.88;;;18.50;99.90;;;;;;5093817;28;20024;-63
2021/03/23 12:53:34;;;;;;;123.32;115.72;;;18.50;99.90;;;;;;5093644;28;20141;-63
2021/03/23 12:56:02;;;;;;;125.63;118.20;;;18.50;99.90;;;;;;5093615;28;20012;-63